Time;durP1;ratioP1;P1;durP2;ratioP2;P2;SDS_P1;SDS_P2;PMS_P1;PMS_P2;Temp;Humidity;BMP_temperature;BMP_pressure;BME280_temperature;BME280_humidity;BME280_pressure;Samples;Min_cycle;Max_cycle;Signal;HPM_P1;HPM_P2
2023/09/13 00:02:18;;;;;;;8.30;7.60;;;28.60;50.90;;;;;;5008830;28;20234;-45
2023/09/13 00:04:43;;;;;;;8.73;7.93;;;28.50;50.60;;;;;;5008557;28;20948;-46
2023/09/13 00:07:09;;;;;;;9.40;8.60;;;28.50;50.50;;;;;;5007349;28;20205;-48
2023/09/13 00:09:34;;;;;;;9.20;8.40;;;28.50;50.50;;;;;;5006498;28;20564;-49
2023/09/13 00:12:00;;;;;;;8.97;8.07;;;28.50;50.40;;;;;;5006764;28;20197;-45
2023/09/13 00:14:26;;;;;;;9.90;8.30;;;28.50;50.60;;;;;;5005271;28;20201;-47
2023/09/13 00:16:52;;;;;;;9.67;8.77;;;28.50;51.00;;;;;;5004148;28;20212;-47
2023/09/13 00:19:18;;;;;;;11.30;9.23;;;28.50;51.70;;;;;;5012256;28;20421;-46
2023/09/13 00:21:43;;;;;;;9.37;8.37;;;28.50;52.00;;;;;;5011557;28;20199;-45
2023/09/13 00:24:10;;;;;;;8.90;8.20;;;28.50;52.10;;;;;;5011745;28;20689;-46
2023/09/13 00:26:35;;;;;;;10.90;8.77;;;28.50;52.10;;;;;;5012896;28;20194;-45
2023/09/13 00:29:01;;;;;;;8.53;7.83;;;28.50;52.90;;;;;;4994906;28;20503;-46
2023/09/13 00:31:27;;;;;;;9.00;7.97;;;28.50;52.20;;;;;;5012988;28;20282;-47
2023/09/13 00:33:52;;;;;;;9.00;8.23;;;28.50;52.10;;;;;;5012445;28;20809;-43
2023/09/13 00:36:18;;;;;;;9.40;8.50;;;28.50;52.10;;;;;;5009448;28;20190;-45
2023/09/13 00:38:43;;;;;;;9.80;8.90;;;28.40;52.10;;;;;;5009967;28;20712;-43
2023/09/13 00:41:09;;;;;;;9.30;8.50;;;28.50;52.40;;;;;;5000117;28;20193;-47
2023/09/13 00:43:35;;;;;;;10.17;8.80;;;28.40;52.80;;;;;;5011387;28;20193;-45
2023/09/13 00:46:01;;;;;;;12.63;9.87;;;28.40;53.40;;;;;;5009583;28;20186;-46
2023/09/13 00:48:28;;;;;;;13.43;9.60;;;28.40;53.70;;;;;;5004959;28;21910;-44
2023/09/13 00:50:54;;;;;;;13.53;10.80;;;28.40;53.90;;;;;;5009281;28;20493;-46
2023/09/13 00:53:20;;;;;;;8.77;8.00;;;28.30;54.60;;;;;;5007524;28;20822;-43
2023/09/13 00:55:49;;;;;;;10.70;9.70;;;28.20;54.80;;;;;;5005377;28;20232;-46
2023/09/13 00:58:15;;;;;;;10.30;9.30;;;28.20;55.40;;;;;;5004705;28;20452;-47
2023/09/13 01:00:41;;;;;;;10.90;9.90;;;28.10;55.70;;;;;;5009083;28;20448;-44
2023/09/13 01:03:07;;;;;;;10.10;9.07;;;28.10;56.00;;;;;;5010940;28;20229;-45
2023/09/13 01:05:36;;;;;;;9.80;8.90;;;28.10;56.10;;;;;;5010150;28;20775;-45
2023/09/13 01:08:03;;;;;;;12.07;9.93;;;28.10;56.00;;;;;;5005274;28;20217;-43
2023/09/13 01:10:28;;;;;;;9.57;8.77;;;28.10;56.30;;;;;;5006973;28;20839;-43
2023/09/13 01:12:54;;;;;;;9.33;8.40;;;28.00;56.30;;;;;;5008915;28;20448;-43
2023/09/13 01:15:22;;;;;;;11.73;8.73;;;28.00;55.80;;;;;;5008830;28;20194;-45
2023/09/13 01:18:03;;;;;;;7.83;7.00;;;28.00;55.60;;;;;;4989568;28;20428;-45
2023/09/13 01:20:30;;;;;;;8.53;7.63;;;28.00;55.70;;;;;;5006661;28;20448;-43
2023/09/13 01:23:14;;;;;;;7.47;6.83;;;27.90;55.60;;;;;;5008415;28;20527;-43
2023/09/13 01:26:00;;;;;;;8.00;7.30;;;27.90;55.70;;;;;;5008154;28;20476;-44
2023/09/13 01:28:46;;;;;;;7.23;6.53;;;27.90;55.10;;;;;;5009401;28;20852;-43
2023/09/13 01:31:13;;;;;;;7.47;6.87;;;28.00;55.20;;;;;;5007979;28;20547;-44
2023/09/13 01:33:39;;;;;;;7.83;7.03;;;28.00;54.90;;;;;;5004637;28;20433;-43
2023/09/13 01:36:05;;;;;;;6.90;6.20;;;28.00;54.70;;;;;;5004307;28;20880;-44
2023/09/13 01:38:31;;;;;;;6.87;6.20;;;28.10;54.90;;;;;;5005555;28;20221;-44
2023/09/13 01:41:19;;;;;;;6.83;6.07;;;28.00;55.30;;;;;;5005814;28;20507;-44
2023/09/13 01:43:46;;;;;;;7.63;6.60;;;27.90;55.50;;;;;;5005909;28;20529;-44
2023/09/13 01:46:12;;;;;;;8.23;7.43;;;27.90;56.00;;;;;;5005400;28;20575;-44
2023/09/13 01:48:39;;;;;;;7.70;6.87;;;27.80;56.30;;;;;;5004951;28;20445;-44
2023/09/13 01:51:05;;;;;;;8.20;7.50;;;27.60;56.70;;;;;;5009003;28;20501;-49
2023/09/13 01:53:31;;;;;;;7.87;6.77;;;27.60;56.70;;;;;;5007389;28;20907;-44
2023/09/13 01:55:57;;;;;;;8.60;7.60;;;27.60;56.70;;;;;;5005711;28;20528;-43
2023/09/13 01:58:22;;;;;;;8.00;7.23;;;27.60;56.70;;;;;;5009397;28;20269;-44
2023/09/13 02:00:48;;;;;;;8.30;7.50;;;27.70;56.50;;;;;;5012152;28;20256;-47
2023/09/13 02:03:14;;;;;;;7.60;6.73;;;27.70;56.50;;;;;;5006354;28;20822;-43
2023/09/13 02:05:39;;;;;;;7.33;6.17;;;27.70;56.40;;;;;;5008056;28;20186;-46
2023/09/13 02:08:05;;;;;;;6.23;5.47;;;27.70;56.20;;;;;;5009803;28;20511;-50
2023/09/13 02:10:31;;;;;;;7.20;6.60;;;27.70;56.10;;;;;;5010075;28;20230;-45
2023/09/13 02:12:58;;;;;;;7.67;6.90;;;27.70;56.00;;;;;;5010247;28;20194;-45
2023/09/13 02:15:24;;;;;;;11.30;7.67;;;27.80;55.80;;;;;;5009395;28;20205;-44
2023/09/13 02:17:49;;;;;;;9.67;7.53;;;27.80;55.90;;;;;;5012215;28;20440;-45
2023/09/13 02:20:15;;;;;;;8.20;7.40;;;27.80;55.80;;;;;;5012451;28;20261;-45
2023/09/13 02:22:41;;;;;;;8.17;7.37;;;27.80;56.30;;;;;;5013651;28;20200;-45
2023/09/13 02:25:07;;;;;;;8.80;8.00;;;27.80;56.60;;;;;;5004617;28;20273;-44
2023/09/13 02:27:32;;;;;;;8.30;7.60;;;27.70;56.80;;;;;;5008983;28;20209;-44
2023/09/13 02:29:58;;;;;;;9.13;7.50;;;27.80;56.80;;;;;;5014485;28;20229;-49
2023/09/13 02:32:24;;;;;;;9.17;8.37;;;27.70;56.80;;;;;;5012980;28;20238;-44
2023/09/13 02:34:49;;;;;;;8.27;7.10;;;27.70;56.90;;;;;;5013065;28;20448;-44
2023/09/13 02:37:15;;;;;;;8.00;7.30;;;27.70;56.90;;;;;;5010271;28;20600;-44
2023/09/13 02:39:42;;;;;;;8.97;8.27;;;27.70;56.80;;;;;;5013688;28;20212;-44
2023/09/13 02:42:08;;;;;;;9.53;7.57;;;27.70;56.90;;;;;;5012502;28;20577;-44
2023/09/13 02:44:34;;;;;;;8.20;7.47;;;27.60;56.90;;;;;;5010938;28;20439;-45
2023/09/13 02:47:01;;;;;;;7.80;7.10;;;27.60;56.60;;;;;;5011158;28;20210;-45
2023/09/13 02:49:26;;;;;;;6.90;6.27;;;27.50;56.70;;;;;;5013239;28;20440;-47
2023/09/13 02:51:52;;;;;;;7.43;6.47;;;27.50;56.90;;;;;;5009139;28;20468;-44
2023/09/13 02:54:18;;;;;;;8.63;7.70;;;27.50;56.70;;;;;;5011908;28;20638;-44
2023/09/13 02:56:52;;;;;;;8.63;7.83;;;27.50;56.50;;;;;;5007325;28;20197;-45
2023/09/13 02:59:18;;;;;;;8.23;7.47;;;27.60;56.60;;;;;;5012972;28;20193;-49
2023/09/13 03:01:44;;;;;;;10.40;7.60;;;27.40;56.90;;;;;;5010337;28;20475;-47
2023/09/13 03:04:11;;;;;;;8.37;7.57;;;27.30;57.40;;;;;;5012536;28;20204;-44
2023/09/13 03:06:38;;;;;;;7.30;6.60;;;27.30;57.60;;;;;;5010321;28;20340;-46
2023/09/13 03:09:04;;;;;;;8.20;7.47;;;27.20;57.50;;;;;;5004347;28;20449;-44
2023/09/13 03:11:30;;;;;;;7.30;6.70;;;27.30;57.50;;;;;;5009540;28;20571;-45
2023/09/13 03:13:55;;;;;;;10.03;7.60;;;27.30;57.50;;;;;;5010388;28;20251;-44
2023/09/13 03:16:22;;;;;;;7.30;6.60;;;27.30;57.40;;;;;;5006469;28;20190;-45
2023/09/13 03:18:49;;;;;;;10.57;7.20;;;27.30;57.10;;;;;;5010081;28;20281;-45
2023/09/13 03:21:18;;;;;;;6.77;6.27;;;27.30;57.00;;;;;;5009751;28;20436;-46
2023/09/13 03:23:45;;;;;;;6.57;6.03;;;27.40;57.00;;;;;;5007633;28;20883;-45
2023/09/13 03:26:31;;;;;;;7.57;6.87;;;27.40;56.90;;;;;;5008330;28;20433;-45
2023/09/13 03:28:57;;;;;;;8.20;6.70;;;27.40;56.70;;;;;;5009613;28;20477;-45
2023/09/13 03:31:26;;;;;;;6.97;6.37;;;27.50;56.70;;;;;;5008191;28;20489;-44
2023/09/13 03:33:55;;;;;;;7.57;6.87;;;27.50;56.60;;;;;;5007885;28;20205;-44
2023/09/13 03:36:21;;;;;;;7.63;6.70;;;27.50;56.50;;;;;;5009478;28;20445;-44
2023/09/13 03:38:47;;;;;;;6.60;6.10;;;27.50;56.50;;;;;;5010981;28;20512;-44
2023/09/13 03:41:15;;;;;;;7.00;6.40;;;27.50;56.40;;;;;;5007242;28;20447;-44
2023/09/13 03:43:42;;;;;;;7.97;7.27;;;27.60;56.40;;;;;;5006882;28;20437;-46
2023/09/13 03:46:08;;;;;;;7.83;7.03;;;27.50;56.40;;;;;;5007946;28;20441;-44
2023/09/13 03:48:35;;;;;;;7.70;6.90;;;27.50;56.40;;;;;;5008460;28;20440;-44
2023/09/13 03:51:01;;;;;;;7.40;6.70;;;27.50;56.40;;;;;;5005934;28;20571;-45
2023/09/13 03:53:27;;;;;;;8.10;7.00;;;27.50;56.40;;;;;;5007772;28;20540;-44
2023/09/13 03:55:53;;;;;;;6.90;6.20;;;27.50;56.20;;;;;;5010365;28;20723;-46
2023/09/13 03:58:19;;;;;;;8.07;7.40;;;27.50;56.20;;;;;;5010472;28;20228;-44
2023/09/13 04:00:45;;;;;;;7.90;7.20;;;27.50;56.30;;;;;;5007028;28;20474;-45
2023/09/13 04:03:11;;;;;;;7.10;6.50;;;27.50;56.40;;;;;;5011462;28;20242;-45
2023/09/13 04:05:37;;;;;;;7.57;6.97;;;27.50;56.50;;;;;;5008770;28;20198;-44
2023/09/13 04:08:03;;;;;;;7.77;7.07;;;27.50;56.50;;;;;;5010687;28;20532;-45
2023/09/13 04:10:28;;;;;;;8.70;7.90;;;27.50;56.40;;;;;;5006201;28;20621;-44
2023/09/13 04:12:54;;;;;;;7.80;7.20;;;27.50;56.60;;;;;;5009810;28;20198;-45
2023/09/13 04:15:20;;;;;;;7.87;7.27;;;27.50;56.50;;;;;;5005885;28;20234;-44
2023/09/13 04:17:45;;;;;;;6.40;5.90;;;27.50;56.40;;;;;;5010590;28;20251;-45
2023/09/13 04:20:11;;;;;;;7.27;6.43;;;27.50;56.30;;;;;;5012900;28;20193;-44
2023/09/13 04:22:37;;;;;;;7.47;6.77;;;27.50;56.40;;;;;;5012665;28;20601;-44
2023/09/13 04:25:06;;;;;;;7.37;6.70;;;27.50;56.40;;;;;;5011033;28;20524;-45
2023/09/13 04:27:32;;;;;;;8.60;6.33;;;27.50;56.40;;;;;;5012179;28;20646;-48
2023/09/13 04:29:57;;;;;;;7.17;6.57;;;27.50;57.00;;;;;;5012915;28;20587;-44
2023/09/13 04:32:26;;;;;;;6.77;6.27;;;27.50;56.40;;;;;;5011941;28;20189;-44
2023/09/13 04:34:52;;;;;;;7.77;7.07;;;27.50;56.40;;;;;;5013223;28;20193;-44
2023/09/13 04:37:18;;;;;;;8.17;6.67;;;27.50;56.40;;;;;;5007701;28;20436;-47
2023/09/13 04:39:44;;;;;;;6.87;6.33;;;27.50;56.40;;;;;;5011390;28;20540;-44
2023/09/13 04:42:10;;;;;;;8.03;6.67;;;27.50;56.40;;;;;;5010971;28;20269;-44
2023/09/13 04:44:36;;;;;;;6.93;6.23;;;27.50;56.40;;;;;;5002681;28;20190;-45
2023/09/13 04:47:01;;;;;;;8.23;7.50;;;27.50;56.40;;;;;;5010488;28;20447;-43
2023/09/13 04:49:27;;;;;;;6.30;5.73;;;27.50;56.40;;;;;;5009770;28;20225;-45
2023/09/13 04:51:54;;;;;;;8.90;7.90;;;27.50;56.40;;;;;;5009832;28;20295;-47
2023/09/13 04:54:22;;;;;;;7.63;6.43;;;27.50;56.40;;;;;;5008405;28;20709;-44
2023/09/13 04:56:50;;;;;;;6.40;5.80;;;27.50;56.40;;;;;;5007757;28;20879;-44
2023/09/13 04:59:16;;;;;;;8.47;7.60;;;27.50;56.40;;;;;;5007876;28;20472;-48
2023/09/13 05:01:42;;;;;;;9.20;8.30;;;27.50;56.30;;;;;;5008323;28;20476;-44
2023/09/13 05:04:09;;;;;;;9.00;7.90;;;27.50;56.40;;;;;;5007781;28;20207;-42
2023/09/13 05:06:35;;;;;;;8.17;7.47;;;27.50;56.80;;;;;;5005461;28;21707;-44
2023/09/13 05:09:00;;;;;;;7.50;6.80;;;27.40;57.00;;;;;;5006749;28;21708;-42
2023/09/13 05:11:26;;;;;;;7.70;7.10;;;27.40;57.20;;;;;;5010319;28;20268;-42
2023/09/13 05:14:08;;;;;;;9.00;8.20;;;27.40;57.00;;;;;;5009295;28;20204;-41
2023/09/13 05:16:34;;;;;;;13.03;7.57;;;27.40;57.00;;;;;;5005407;28;20252;-44
2023/09/13 05:19:00;;;;;;;8.97;8.07;;;27.30;57.20;;;;;;5005194;28;20453;-42
2023/09/13 05:21:25;;;;;;;9.10;8.37;;;27.30;57.30;;;;;;5007026;28;20265;-43
2023/09/13 05:23:51;;;;;;;8.90;8.10;;;27.30;57.40;;;;;;5009125;28;20555;-42
2023/09/13 05:26:16;;;;;;;8.57;7.80;;;27.20;57.80;;;;;;5010075;28;20618;-43
2023/09/13 05:28:42;;;;;;;7.83;7.23;;;27.20;57.70;;;;;;5012419;28;20206;-43
2023/09/13 05:31:08;;;;;;;7.83;7.20;;;27.20;57.80;;;;;;5001371;28;20236;-45
2023/09/13 05:33:34;;;;;;;6.97;6.37;;;27.20;57.60;;;;;;5010989;28;20273;-43
2023/09/13 05:35:59;;;;;;;6.07;5.67;;;27.20;57.40;;;;;;5013089;28;20244;-43
2023/09/13 05:38:25;;;;;;;6.63;5.93;;;27.20;57.40;;;;;;5009990;28;20444;-46
2023/09/13 05:40:51;;;;;;;5.93;5.40;;;27.20;57.10;;;;;;5014521;28;20208;-43
2023/09/13 05:43:16;;;;;;;10.07;5.70;;;27.10;57.10;;;;;;5008296;28;20642;-41
2023/09/13 05:45:42;;;;;;;5.70;5.20;;;27.10;57.20;;;;;;5008476;28;20205;-43
2023/09/13 05:48:07;;;;;;;9.03;6.17;;;27.20;57.10;;;;;;5013228;28;20194;-42
2023/09/13 05:50:33;;;;;;;9.90;8.07;;;27.20;57.10;;;;;;5015244;28;20242;-43
2023/09/13 05:52:58;;;;;;;8.30;7.50;;;27.20;57.30;;;;;;5011326;28;20562;-42
2023/09/13 05:55:24;;;;;;;9.70;7.70;;;27.10;57.50;;;;;;5013307;28;22030;-43
2023/09/13 05:57:53;;;;;;;8.87;7.90;;;27.10;57.50;;;;;;5011744;28;20233;-43
2023/09/13 06:00:21;;;;;;;9.07;8.17;;;27.10;57.90;;;;;;5008965;28;20195;-44
2023/09/13 06:02:47;;;;;;;7.87;7.17;;;27.10;58.00;;;;;;5006694;28;20476;-44
2023/09/13 06:05:12;;;;;;;10.23;8.20;;;27.00;58.10;;;;;;5009090;28;20841;-43
2023/09/13 06:07:38;;;;;;;11.30;8.20;;;27.00;58.20;;;;;;5001799;28;20194;-44
2023/09/13 06:10:05;;;;;;;8.40;7.53;;;27.00;58.50;;;;;;5007983;28;20267;-45
2023/09/13 06:12:31;;;;;;;7.37;6.67;;;27.00;58.50;;;;;;5009520;28;20194;-43
2023/09/13 06:14:57;;;;;;;8.90;7.57;;;27.00;58.40;;;;;;5011649;28;20453;-44
2023/09/13 06:17:23;;;;;;;8.73;7.33;;;26.90;58.40;;;;;;5013921;28;20458;-44
2023/09/13 06:19:52;;;;;;;9.77;7.20;;;26.90;58.30;;;;;;5012971;28;20456;-41
2023/09/13 06:22:18;;;;;;;7.90;7.20;;;27.00;58.30;;;;;;4995037;28;20453;-42
2023/09/13 06:24:44;;;;;;;7.07;6.40;;;27.10;58.10;;;;;;4995149;28;20509;-41
2023/09/13 06:27:10;;;;;;;9.40;6.37;;;27.00;58.00;;;;;;5001453;28;20288;-42
2023/09/13 06:29:35;;;;;;;7.33;6.43;;;27.00;58.00;;;;;;5015281;28;20444;-43
2023/09/13 06:32:02;;;;;;;11.07;7.63;;;27.10;58.00;;;;;;5002345;28;20551;-43
2023/09/13 06:34:28;;;;;;;14.33;8.07;;;27.10;57.80;;;;;;5000182;28;20642;-47
2023/09/13 06:36:55;;;;;;;8.47;7.67;;;27.10;57.90;;;;;;5003682;28;20523;-46
2023/09/13 06:39:20;;;;;;;6.57;5.90;;;27.10;58.00;;;;;;5009265;28;20611;-44
2023/09/13 06:41:46;;;;;;;6.87;5.33;;;27.10;58.00;;;;;;4996673;28;20496;-46
2023/09/13 06:44:12;;;;;;;4.80;4.40;;;27.00;57.70;;;;;;5007185;28;20186;-46
2023/09/13 06:46:38;;;;;;;4.37;4.07;;;26.90;57.20;;;;;;5007528;28;20220;-44
2023/09/13 06:49:04;;;;;;;4.40;4.10;;;26.80;57.20;;;;;;5010643;28;20186;-45
2023/09/13 06:51:30;;;;;;;4.00;3.70;;;26.60;57.80;;;;;;5010631;28;20496;-47
2023/09/13 06:53:55;;;;;;;4.97;4.30;;;26.50;57.80;;;;;;5010252;28;20539;-44
2023/09/13 06:56:21;;;;;;;3.67;3.37;;;26.40;58.00;;;;;;5011607;28;20273;-43
2023/09/13 06:58:47;;;;;;;4.47;4.07;;;26.40;58.20;;;;;;4997577;28;20273;-44
2023/09/13 07:01:13;;;;;;;4.53;4.13;;;26.40;58.20;;;;;;5005417;28;20193;-47
2023/09/13 07:03:39;;;;;;;4.23;3.80;;;26.40;58.40;;;;;;4994833;28;20698;-45
2023/09/13 07:06:05;;;;;;;4.80;4.40;;;26.40;58.40;;;;;;5001864;28;20511;-44
2023/09/13 07:08:30;;;;;;;6.13;4.60;;;26.40;58.60;;;;;;5004877;28;20222;-45
2023/09/13 07:10:56;;;;;;;6.03;5.40;;;26.40;58.60;;;;;;5011736;28;22141;-43
2023/09/13 07:13:21;;;;;;;4.63;4.23;;;26.50;58.80;;;;;;5002223;28;20845;-46
2023/09/13 07:15:48;;;;;;;4.90;4.40;;;26.50;58.70;;;;;;5007785;28;20220;-45
2023/09/13 07:18:13;;;;;;;4.57;4.17;;;26.50;58.50;;;;;;5003772;28;20198;-49
2023/09/13 07:20:39;;;;;;;4.63;4.00;;;26.50;58.30;;;;;;5005363;28;20963;-44
2023/09/13 07:23:05;;;;;;;4.53;4.20;;;26.50;58.20;;;;;;5006447;28;20264;-44
2023/09/13 07:25:30;;;;;;;5.80;4.60;;;26.50;58.40;;;;;;5004391;28;20186;-43
2023/09/13 07:27:57;;;;;;;7.10;5.00;;;26.60;58.40;;;;;;5008815;28;20315;-44
2023/09/13 07:30:23;;;;;;;4.40;4.10;;;26.60;58.30;;;;;;5005306;28;20785;-44
2023/09/13 07:32:49;;;;;;;4.20;3.90;;;26.60;58.10;;;;;;5008212;28;20445;-44
2023/09/13 07:35:14;;;;;;;4.17;3.87;;;26.60;58.40;;;;;;5007190;28;20186;-46
2023/09/13 07:37:40;;;;;;;4.73;3.93;;;26.60;58.40;;;;;;5006308;28;20476;-44
2023/09/13 07:40:06;;;;;;;6.50;4.17;;;26.60;58.00;;;;;;5006995;28;20229;-45
2023/09/13 07:42:32;;;;;;;6.53;3.80;;;26.70;58.00;;;;;;5000550;28;20236;-44
2023/09/13 07:44:57;;;;;;;4.40;4.00;;;26.70;58.00;;;;;;5005302;28;20963;-46
2023/09/13 07:47:23;;;;;;;3.50;3.30;;;26.70;58.20;;;;;;5000163;28;20194;-44
2023/09/13 07:49:49;;;;;;;3.87;3.43;;;26.60;57.90;;;;;;4998562;28;20251;-49
2023/09/13 07:52:15;;;;;;;4.63;3.47;;;26.40;57.50;;;;;;5004653;28;20588;-44
2023/09/13 07:54:41;;;;;;;6.70;3.37;;;26.20;58.00;;;;;;5004295;28;20445;-43
2023/09/13 07:57:07;;;;;;;2.83;2.63;;;26.10;58.30;;;;;;5009705;28;20194;-49
2023/09/13 07:59:32;;;;;;;3.03;2.83;;;26.10;58.20;;;;;;4995197;28;20503;-45
2023/09/13 08:01:58;;;;;;;7.53;3.90;;;26.10;58.40;;;;;;4999567;28;20942;-44
2023/09/13 08:04:26;;;;;;;3.23;3.00;;;26.10;58.40;;;;;;5002591;28;20737;-44
2023/09/13 08:06:52;;;;;;;3.30;3.10;;;26.10;58.30;;;;;;5001671;28;20186;-43
2023/09/13 08:09:17;;;;;;;3.60;3.30;;;26.10;58.20;;;;;;5009319;28;20433;-43
2023/09/13 08:11:46;;;;;;;3.43;3.13;;;26.10;58.20;;;;;;5005615;28;20226;-46
2023/09/13 08:14:12;;;;;;;3.70;3.40;;;26.10;58.30;;;;;;5008069;28;20205;-44
2023/09/13 08:16:38;;;;;;;3.50;3.20;;;26.10;58.30;;;;;;5003114;28;20445;-44
2023/09/13 08:19:04;;;;;;;3.40;3.10;;;26.10;58.20;;;;;;5009317;28;20200;-44
2023/09/13 08:21:29;;;;;;;4.53;3.10;;;25.90;58.30;;;;;;5005008;28;20186;-47
2023/09/13 08:23:55;;;;;;;3.40;3.10;;;25.90;58.90;;;;;;5005415;28;20253;-44
2023/09/13 08:26:21;;;;;;;3.00;2.80;;;26.00;59.10;;;;;;5012046;28;20189;-46
2023/09/13 08:28:46;;;;;;;3.90;2.90;;;26.10;59.00;;;;;;5004755;28;20662;-45
2023/09/13 08:31:12;;;;;;;2.70;2.50;;;26.10;58.80;;;;;;5003620;28;22297;-44
2023/09/13 08:33:37;;;;;;;3.40;3.20;;;26.20;58.70;;;;;;5004018;28;20190;-46
2023/09/13 08:36:04;;;;;;;3.87;3.57;;;26.30;58.40;;;;;;5000687;28;20194;-46
2023/09/13 08:38:30;;;;;;;3.37;3.17;;;26.30;58.20;;;;;;4998020;28;20221;-46
2023/09/13 08:40:56;;;;;;;7.90;3.47;;;26.30;58.30;;;;;;5007339;28;20451;-42
2023/09/13 08:43:23;;;;;;;4.87;3.30;;;26.30;58.40;;;;;;5001302;28;20848;-47
2023/09/13 08:45:50;;;;;;;3.40;3.20;;;26.30;58.30;;;;;;5003724;28;20198;-45
2023/09/13 08:48:18;;;;;;;3.60;3.30;;;26.40;58.50;;;;;;4998479;28;20521;-46
2023/09/13 08:50:45;;;;;;;4.33;2.93;;;26.50;58.60;;;;;;5002067;28;21003;-48
2023/09/13 08:53:12;;;;;;;3.43;3.13;;;26.60;58.20;;;;;;5004783;28;20438;-45
2023/09/13 08:55:38;;;;;;;2.83;2.63;;;26.50;57.50;;;;;;5000010;28;20451;-43
2023/09/13 08:58:04;;;;;;;3.10;2.90;;;26.50;57.60;;;;;;5000429;28;20441;-43
2023/09/13 09:00:39;;;;;;;3.80;3.10;;;26.50;57.80;;;;;;5005851;28;20444;-43
2023/09/13 09:03:07;;;;;;;3.40;3.20;;;26.50;57.60;;;;;;5002588;28;20798;-47
2023/09/13 09:05:35;;;;;;;4.00;3.50;;;26.50;57.60;;;;;;5003837;28;20528;-50
2023/09/13 09:08:02;;;;;;;3.80;3.50;;;26.50;57.90;;;;;;5008471;28;20440;-46
2023/09/13 09:10:30;;;;;;;3.80;3.50;;;26.50;57.90;;;;;;5010759;28;20492;-46
2023/09/13 09:12:57;;;;;;;3.87;3.57;;;26.50;57.80;;;;;;5005615;28;20451;-47
2023/09/13 09:15:24;;;;;;;5.00;3.10;;;26.50;57.60;;;;;;5004771;28;20960;-47
2023/09/13 09:17:52;;;;;;;6.60;3.63;;;26.50;57.70;;;;;;5001803;28;20523;-45
2023/09/13 09:20:27;;;;;;;4.00;3.53;;;26.50;57.90;;;;;;5001674;28;20449;-44
2023/09/13 09:22:55;;;;;;;3.90;3.60;;;26.60;57.60;;;;;;5007302;28;20480;-48
2023/09/13 09:25:25;;;;;;;3.73;3.40;;;26.70;57.60;;;;;;5010104;28;20445;-44
2023/09/13 09:27:51;;;;;;;3.70;3.40;;;26.60;57.30;;;;;;5009458;28;20453;-45
2023/09/13 09:30:28;;;;;;;3.93;3.63;;;26.60;57.20;;;;;;5000515;28;20464;-44
2023/09/13 09:33:00;;;;;;;4.77;4.47;;;26.50;57.50;;;;;;5005205;28;20440;-46
2023/09/13 09:35:25;;;;;;;4.50;4.10;;;26.60;58.30;;;;;;5004160;28;20458;-43
2023/09/13 09:37:51;;;;;;;3.90;3.57;;;26.60;58.50;;;;;;5002765;28;20437;-44
2023/09/13 09:40:16;;;;;;;3.27;3.03;;;26.70;58.70;;;;;;5007153;28;20198;-45
2023/09/13 09:42:42;;;;;;;5.13;4.30;;;26.70;58.30;;;;;;5008839;28;20198;-44
2023/09/13 09:45:08;;;;;;;4.20;3.33;;;26.80;58.10;;;;;;5010859;28;20585;-43
2023/09/13 09:47:38;;;;;;;5.63;4.30;;;26.80;58.00;;;;;;5005359;28;20190;-42
2023/09/13 09:50:04;;;;;;;13.23;8.60;;;26.90;58.20;;;;;;4995022;28;20597;-43
2023/09/13 09:52:30;;;;;;;7.70;5.50;;;27.00;58.20;;;;;;4993817;28;20499;-44
2023/09/13 09:54:56;;;;;;;20.43;10.03;;;27.00;58.30;;;;;;5010331;28;20440;-44
2023/09/13 09:57:23;;;;;;;10.73;8.00;;;27.10;58.30;;;;;;5008911;28;20435;-43
2023/09/13 09:59:49;;;;;;;7.57;4.73;;;27.10;58.30;;;;;;5000012;28;20213;-46
2023/09/13 10:02:15;;;;;;;5.07;4.60;;;27.20;57.70;;;;;;5002588;28;20563;-45
2023/09/13 10:04:45;;;;;;;4.30;3.80;;;27.20;57.70;;;;;;5004568;28;20536;-46
2023/09/13 10:07:10;;;;;;;5.00;4.50;;;27.20;57.70;;;;;;5009272;28;20208;-42
2023/09/13 10:09:38;;;;;;;5.63;4.60;;;27.20;57.70;;;;;;5008999;28;21000;-43
2023/09/13 10:12:04;;;;;;;4.67;4.23;;;27.10;57.90;;;;;;5008083;28;20229;-44
2023/09/13 10:14:30;;;;;;;9.30;5.53;;;27.20;58.10;;;;;;5011419;28;20448;-45
2023/09/13 10:16:57;;;;;;;5.60;5.10;;;27.10;58.30;;;;;;5011272;28;20455;-44
2023/09/13 10:19:28;;;;;;;5.70;5.20;;;27.20;58.50;;;;;;5012861;28;20181;-45
2023/09/13 10:21:54;;;;;;;6.43;4.80;;;27.20;58.10;;;;;;5003738;28;20487;-45
2023/09/13 10:24:22;;;;;;;5.23;4.23;;;27.10;58.70;;;;;;5003608;28;20821;-43
2023/09/13 10:26:51;;;;;;;4.63;4.23;;;27.20;58.80;;;;;;5008661;28;20476;-44
2023/09/13 10:29:39;;;;;;;6.37;4.50;;;27.10;58.70;;;;;;5011985;28;20454;-48
2023/09/13 10:32:07;;;;;;;4.50;4.07;;;26.80;59.40;;;;;;5002434;28;20485;-45
2023/09/13 10:34:41;;;;;;;4.40;4.00;;;26.90;59.70;;;;;;5011166;28;20479;-44
2023/09/13 10:37:10;;;;;;;3.63;3.20;;;27.00;59.90;;;;;;5008940;28;20969;-46
2023/09/13 10:39:59;;;;;;;5.27;4.60;;;27.10;59.40;;;;;;5004236;28;20460;-47
2023/09/13 10:42:25;;;;;;;5.93;3.60;;;27.20;58.90;;;;;;5000321;28;20445;-47
2023/09/13 10:44:52;;;;;;;5.27;3.57;;;27.20;58.50;;;;;;5005990;28;20488;-47
2023/09/13 10:47:19;;;;;;;3.93;3.63;;;27.30;57.90;;;;;;5009104;28;20425;-43
2023/09/13 10:49:48;;;;;;;4.03;3.63;;;27.40;57.80;;;;;;5010903;28;20449;-43
2023/09/13 10:52:15;;;;;;;4.43;4.00;;;27.50;57.60;;;;;;5009525;28;20810;-43
2023/09/13 10:54:42;;;;;;;4.57;3.43;;;27.50;57.70;;;;;;5011655;28;20452;-43
2023/09/13 10:57:09;;;;;;;5.03;4.57;;;27.50;56.90;;;;;;5013132;28;20539;-43
2023/09/13 10:59:37;;;;;;;5.27;3.63;;;27.60;57.00;;;;;;5009637;28;20445;-44
2023/09/13 11:02:05;;;;;;;4.10;3.70;;;27.60;56.90;;;;;;5011605;28;20456;-44
2023/09/13 11:04:31;;;;;;;4.13;3.83;;;27.50;56.40;;;;;;5003227;28;20468;-45
2023/09/13 11:06:58;;;;;;;3.93;3.63;;;27.50;56.10;;;;;;5010723;28;20448;-46
2023/09/13 11:09:30;;;;;;;4.13;3.83;;;27.60;56.40;;;;;;5007391;28;20968;-43
2023/09/13 11:11:57;;;;;;;5.17;3.90;;;27.40;56.20;;;;;;4992571;28;21156;-43
2023/09/13 11:14:31;;;;;;;4.67;4.30;;;27.50;56.70;;;;;;5007911;28;20965;-45
2023/09/13 11:17:37;;;;;;;4.03;3.73;;;27.60;56.70;;;;;;5012184;28;20444;-46
2023/09/13 11:20:21;;;;;;;4.43;4.13;;;27.60;56.30;;;;;;5009065;28;20448;-43
2023/09/13 11:23:31;;;;;;;3.80;3.40;;;27.70;56.50;;;;;;5008654;28;20624;-43
2023/09/13 11:26:05;;;;;;;4.60;4.27;;;27.80;56.30;;;;;;4956905;28;21098;-46
2023/09/13 11:28:36;;;;;;;4.50;4.10;;;27.90;56.10;;;;;;5011957;28;20955;-43
2023/09/13 11:31:03;;;;;;;5.23;4.87;;;28.00;56.60;;;;;;4992364;28;20488;-46
2023/09/13 11:33:29;;;;;;;4.90;4.50;;;28.00;55.90;;;;;;5000057;28;20448;-50
2023/09/13 11:35:58;;;;;;;4.83;4.47;;;28.10;55.50;;;;;;5005050;28;20444;-45
2023/09/13 11:38:27;;;;;;;8.00;4.80;;;28.10;55.40;;;;;;5002951;28;20528;-46
2023/09/13 11:40:58;;;;;;;4.17;3.77;;;28.20;55.20;;;;;;5003439;28;20452;-45
2023/09/13 11:43:25;;;;;;;4.13;3.83;;;28.20;55.20;;;;;;5002828;28;20483;-44
2023/09/13 11:45:55;;;;;;;5.20;4.80;;;28.00;56.80;;;;;;5004061;28;20455;-46
2023/09/13 11:48:39;;;;;;;4.40;3.57;;;28.10;56.50;;;;;;5002094;28;20535;-45
2023/09/13 11:51:13;;;;;;;5.23;4.63;;;28.20;56.00;;;;;;4999729;28;20481;-48
2023/09/13 11:53:40;;;;;;;4.93;4.50;;;28.10;55.80;;;;;;5002843;28;20546;-45
2023/09/13 11:56:07;;;;;;;4.67;4.00;;;28.20;55.20;;;;;;5007547;28;20456;-46
2023/09/13 11:58:34;;;;;;;5.10;3.90;;;28.30;54.90;;;;;;5006753;28;20445;-45
2023/09/13 12:01:03;;;;;;;5.47;4.87;;;28.30;54.20;;;;;;5001863;28;20476;-46
2023/09/13 12:03:39;;;;;;;5.20;4.80;;;28.20;54.30;;;;;;5007296;28;20475;-45
2023/09/13 12:06:05;;;;;;;4.47;4.17;;;28.40;53.80;;;;;;5008379;28;20445;-45
2023/09/13 12:08:34;;;;;;;5.03;4.63;;;28.50;53.70;;;;;;4995578;28;20460;-44
2023/09/13 12:11:02;;;;;;;4.20;3.90;;;28.60;53.50;;;;;;5006532;28;20520;-45
2023/09/13 12:13:46;;;;;;;4.27;4.07;;;28.60;53.40;;;;;;5009737;28;20449;-45
2023/09/13 12:16:12;;;;;;;4.90;4.50;;;28.70;53.80;;;;;;5009168;28;20544;-45
2023/09/13 12:18:39;;;;;;;4.93;4.53;;;28.70;53.40;;;;;;5003041;28;20916;-45
2023/09/13 12:21:06;;;;;;;4.20;3.90;;;28.80;53.10;;;;;;5005649;28;20460;-44
2023/09/13 12:23:36;;;;;;;4.90;4.37;;;28.90;52.60;;;;;;5006940;28;20781;-44
2023/09/13 12:26:10;;;;;;;5.47;5.00;;;28.90;52.70;;;;;;4997404;28;20457;-48
2023/09/13 12:28:39;;;;;;;5.07;4.67;;;28.80;51.50;;;;;;5007162;28;20449;-44
2023/09/13 12:31:09;;;;;;;4.63;4.20;;;28.80;52.00;;;;;;5007709;28;20503;-45
2023/09/13 12:33:42;;;;;;;4.33;4.00;;;28.90;53.20;;;;;;5002734;28;20445;-47
2023/09/13 12:36:09;;;;;;;4.30;3.80;;;29.00;53.30;;;;;;5009029;28;20444;-47
2023/09/13 12:38:46;;;;;;;5.80;4.20;;;29.10;52.90;;;;;;5010199;28;20445;-47
2023/09/13 12:41:19;;;;;;;4.67;4.27;;;29.30;52.00;;;;;;4999709;28;20444;-45
2023/09/13 12:43:49;;;;;;;4.60;4.20;;;29.30;51.30;;;;;;5008125;28;20453;-46
2023/09/13 12:46:20;;;;;;;5.00;3.77;;;29.50;51.10;;;;;;4999690;28;20453;-44
2023/09/13 12:48:49;;;;;;;4.83;3.80;;;29.60;50.60;;;;;;5008823;28;20440;-45